Time;durP1;ratioP1;P1;durP2;ratioP2;P2;SDS_P1;SDS_P2;PMS_P1;PMS_P2;Temp;Humidity;BMP_temperature;BMP_pressure;BME280_temperature;BME280_humidity;BME280_pressure;Samples;Min_cycle;Max_cycle;Signal;HPM_P1;HPM_P2
2023/02/12 00:00:54;;;;;;;25.90;14.73;;;;;;;11.84;58.21;103765.63;4832778;29;114424;-71
2023/02/12 00:03:21;;;;;;;24.85;15.18;;;;;;;11.85;58.14;103772.72;4833086;29;113966;-71
2023/02/12 00:05:48;;;;;;;28.33;15.65;;;;;;;11.84;57.81;103764.75;4834824;29;124087;-71
2023/02/12 00:08:16;;;;;;;25.67;14.40;;;;;;;11.83;57.91;103761.22;4829347;29;123296;-71
2023/02/12 00:10:43;;;;;;;23.38;14.70;;;;;;;11.83;58.03;103763.88;4830652;29;114216;-71
2023/02/12 00:13:11;;;;;;;25.63;15.95;;;;;;;11.83;58.00;103766.53;4835426;29;113774;-71
2023/02/12 00:15:40;;;;;;;26.27;15.35;;;;;;;11.84;57.99;103765.63;4831808;29;123874;-71
2023/02/12 00:18:08;;;;;;;25.60;15.13;;;;;;;11.82;57.88;103767.41;4836181;29;123830;-71
2023/02/12 00:20:38;;;;;;;22.17;14.23;;;;;;;11.82;57.78;103778.00;4836020;29;113978;-71
2023/02/12 00:23:05;;;;;;;25.60;14.95;;;;;;;11.81;57.56;103770.97;4848553;28;112804;-70
2023/02/12 00:25:33;;;;;;;25.30;14.80;;;;;;;11.81;57.72;103781.56;4833067;29;123244;-70
2023/02/12 00:28:00;;;;;;;24.02;15.23;;;;;;;11.79;57.63;103780.69;4833843;29;124375;-71
2023/02/12 00:30:28;;;;;;;23.83;14.93;;;;;;;11.81;57.70;103780.66;4821928;29;114461;-70
2023/02/12 00:32:56;;;;;;;24.23;15.25;;;;;;;11.80;57.61;103782.44;4838488;29;112993;-70
2023/02/12 00:35:23;;;;;;;24.05;14.80;;;;;;;11.80;57.52;103774.47;4831270;29;124910;-70
2023/02/12 00:37:50;;;;;;;21.95;14.63;;;;;;;11.80;57.59;103779.78;4833078;29;124136;-71
2023/02/12 00:40:18;;;;;;;23.55;13.77;;;;;;;11.78;57.66;103772.72;4829998;29;115468;-70
2023/02/12 00:42:46;;;;;;;23.75;14.40;;;;;;;11.75;57.53;103778.91;4823174;29;114321;-71
2023/02/12 00:45:14;;;;;;;25.58;14.98;;;;;;;11.76;57.52;103779.81;4832048;29;124530;-70
2023/02/12 00:47:41;;;;;;;22.67;14.88;;;;;;;11.76;57.35;103767.41;4835953;29;124062;-71
2023/02/12 00:50:08;;;;;;;21.38;14.10;;;;;;;11.76;57.32;103772.72;4834154;29;114231;-71
2023/02/12 00:52:36;;;;;;;24.92;14.90;;;;;;;11.76;57.33;103762.13;4849457;28;113239;-70
2023/02/12 00:55:04;;;;;;;22.35;14.45;;;;;;;11.77;57.46;103769.19;4829139;29;124053;-71
2023/02/12 00:57:32;;;;;;;19.73;14.32;;;;;;;11.78;57.31;103767.41;4837616;29;97192;-72
2023/02/12 00:59:59;;;;;;;24.33;15.07;;;;;;;11.78;57.20;103770.94;4832342;29;113554;-72
2023/02/12 01:02:27;;;;;;;25.75;14.55;;;;;;;11.79;57.18;103772.72;4847359;28;114062;-72
2023/02/12 01:04:54;;;;;;;20.17;13.95;;;;;;;11.80;57.29;103769.16;4832589;29;124090;-71
2023/02/12 01:07:23;;;;;;;23.55;14.63;;;;;;;11.79;57.05;103772.72;4832541;29;124151;-71
2023/02/12 01:09:51;;;;;;;22.25;14.38;;;;;;;11.80;57.07;103769.16;4834227;29;113339;-71
2023/02/12 01:12:18;;;;;;;23.48;14.30;;;;;;;11.80;57.12;103765.66;4829628;29;114422;-71
2023/02/12 01:14:46;;;;;;;22.98;14.85;;;;;;;11.80;57.08;103768.31;4836889;29;123897;-72
2023/02/12 01:17:13;;;;;;;25.52;14.65;;;;;;;11.78;57.00;103770.94;4830748;29;124685;-71
2023/02/12 01:19:43;;;;;;;23.27;14.70;;;;;;;11.76;57.12;103772.72;4834645;29;114404;-71
2023/02/12 01:22:11;;;;;;;24.25;14.73;;;;;;;11.76;57.01;103767.41;4836722;29;114073;-71
2023/02/12 01:24:39;;;;;;;23.58;14.50;;;;;;;11.75;57.00;103770.94;4833767;29;124071;-72
2023/02/12 01:27:07;;;;;;;24.10;15.02;;;;;;;11.76;56.94;103772.72;4835381;29;123111;-71
2023/02/12 01:29:34;;;;;;;23.98;15.27;;;;;;;11.76;56.98;103762.13;4829314;29;115486;-72
2023/02/12 01:32:02;;;;;;;19.67;14.27;;;;;;;11.75;56.94;103768.28;4836171;29;116380;-71
2023/02/12 01:34:29;;;;;;;20.67;13.93;;;;;;;11.76;56.86;103761.25;4830698;29;123581;-71
2023/02/12 01:36:56;;;;;;;21.40;14.25;;;;;;;11.74;56.75;103763.88;4829500;29;122936;-71
2023/02/12 01:39:23;;;;;;;21.15;14.23;;;;;;;11.75;56.70;103767.41;4828830;29;114218;-72
2023/02/12 01:41:51;;;;;;;21.73;13.73;;;;;;;11.75;56.64;103764.75;4838189;29;114531;-71
2023/02/12 01:44:21;;;;;;;21.60;14.60;;;;;;;11.72;56.66;103755.06;4838614;29;124508;-71
2023/02/12 01:46:57;;;;;;;22.50;13.88;;;;;;;11.71;56.82;103769.19;4847986;28;123639;-71
2023/02/12 01:49:34;;;;;;;22.55;13.95;;;;;;;11.70;56.64;103778.06;4835285;29;114328;-70
2023/02/12 01:52:09;;;;;;;22.42;14.27;;;;;;;11.71;56.77;103763.88;4834943;29;114070;-70
2023/02/12 01:54:37;;;;;;;21.55;13.95;;;;;;;11.71;56.83;103758.56;4829166;29;123134;-71
2023/02/12 01:57:07;;;;;;;19.85;13.38;;;;;;;11.72;56.57;103764.78;4828791;29;123706;-70
2023/02/12 01:59:36;;;;;;;20.90;13.85;;;;;;;11.69;56.62;103765.66;4830880;29;114666;-71
2023/02/12 02:02:04;;;;;;;20.63;14.00;;;;;;;11.70;56.54;103762.13;4814839;29;114367;-71
2023/02/12 02:04:38;;;;;;;20.45;14.10;;;;;;;11.70;56.52;103762.13;4831666;29;122803;-70
2023/02/12 02:07:09;;;;;;;21.73;14.13;;;;;;;11.69;56.58;103757.69;4845071;28;123524;-70
2023/02/12 02:09:38;;;;;;;22.75;14.85;;;;;;;11.70;56.38;103767.44;4817362;29;113723;-70
2023/02/12 02:15:01;;;;;;;23.65;14.88;;;;;;;11.68;56.60;103763.91;4820396;29;125213;-71
2023/02/12 02:17:35;;;;;;;23.30;14.85;;;;;;;11.67;56.57;103762.13;4829615;29;124831;-70
2023/02/12 02:20:15;;;;;;;23.42;15.32;;;;;;;11.66;56.52;103755.06;4829509;29;114131;-70
2023/02/12 02:23:03;;;;;;;26.88;15.77;;;;;;;11.65;56.60;103758.59;4830688;29;114568;-70
2023/02/12 02:25:39;;;;;;;20.88;14.85;;;;;;;11.64;56.61;103752.41;4830672;29;124656;-71
2023/02/12 02:28:31;;;;;;;24.23;14.93;;;;;;;11.62;56.52;103747.97;4830688;29;123004;-70
2023/02/12 02:31:17;;;;;;;26.88;16.35;;;;;;;11.60;56.57;103749.75;4831172;29;113253;-70
2023/02/12 02:33:50;;;;;;;24.98;14.52;;;;;;;11.61;56.85;103746.22;4833932;29;114052;-70
2023/02/12 02:36:50;;;;;;;24.05;14.63;;;;;;;11.57;56.66;103747.13;4834240;29;123233;-76
2023/02/12 02:39:50;;;;;;;23.33;14.45;;;;;;;11.55;56.73;103739.16;4817186;29;123648;-71
2023/02/12 02:42:28;;;;;;;22.38;14.27;;;;;;;11.53;56.66;103737.38;4836051;29;114186;-72
2023/02/12 02:45:12;;;;;;;23.33;14.80;;;;;;;11.49;56.65;103736.53;4834865;29;113090;-71
2023/02/12 02:47:47;;;;;;;21.88;15.25;;;;;;;11.47;56.59;103739.19;4832804;29;124162;-70
2023/02/12 02:50:18;;;;;;;23.80;14.38;;;;;;;11.47;56.59;103728.56;4828358;29;124706;-70
2023/02/12 02:52:55;;;;;;;22.50;14.57;;;;;;;11.47;56.73;103733.88;4833568;29;114328;-71
2023/02/12 02:55:26;;;;;;;20.80;13.80;;;;;;;11.48;56.70;103734.75;4837352;29;114355;-71
2023/02/12 02:57:57;;;;;;;21.67;14.38;;;;;;;11.48;56.48;103730.31;4830724;29;123465;-70
2023/02/12 03:00:36;;;;;;;23.60;14.23;;;;;;;11.49;56.64;103732.09;4846494;28;122820;-71
2023/02/12 03:03:15;;;;;;;22.40;13.65;;;;;;;11.48;56.63;103727.66;4837870;29;114301;-70
2023/02/12 03:05:48;;;;;;;20.55;13.27;;;;;;;11.48;56.48;103735.63;4835131;29;114479;-71
2023/02/12 03:08:34;;;;;;;20.50;13.35;;;;;;;11.47;56.54;103727.66;4833981;29;124237;-71
2023/02/12 03:11:29;;;;;;;21.80;13.85;;;;;;;11.45;56.61;103725.03;4837502;29;123502;-71
2023/02/12 03:14:06;;;;;;;20.42;13.10;;;;;;;11.46;56.58;103731.22;4828312;29;115616;-71
2023/02/12 03:16:38;;;;;;;23.40;14.40;;;;;;;11.47;56.45;103733.88;4832323;29;115128;-71
2023/02/12 03:19:25;;;;;;;20.80;13.65;;;;;;;11.47;56.30;103733.88;4837699;29;124205;-71
2023/02/12 03:22:07;;;;;;;22.23;13.70;;;;;;;11.47;56.38;103733.88;4835099;29;124315;-71
2023/02/12 03:24:42;;;;;;;24.52;12.80;;;;;;;11.47;56.56;103736.53;4837286;29;114517;-71
2023/02/12 03:27:16;;;;;;;;;;;;;;;11.48;56.51;103738.28;4831512;29;114066;-71
2023/02/12 03:29:43;;;;;;;19.17;12.98;;;;;;;11.50;56.20;103744.47;4836958;29;124387;-71
2023/02/12 03:32:29;;;;;;;18.65;13.18;;;;;;;11.49;56.34;103739.19;4836473;29;124222;-71
2023/02/12 03:35:37;;;;;;;20.95;13.45;;;;;;;11.48;56.26;103740.06;4834396;29;113498;-71
2023/02/12 03:38:19;;;;;;;19.85;13.27;;;;;;;11.47;56.38;103732.97;4827838;29;114296;-70
2023/02/12 03:40:59;;;;;;;22.20;14.65;;;;;;;11.46;56.36;103737.41;4820190;29;123588;-71
2023/02/12 03:43:37;;;;;;;20.83;14.00;;;;;;;11.45;56.44;103735.66;4836853;29;124477;-70
2023/02/12 03:46:20;;;;;;;20.17;13.15;;;;;;;11.45;56.31;103735.66;4831082;29;114768;-71
2023/02/12 03:49:09;;;;;;;19.52;13.75;;;;;;;11.45;56.42;103740.97;4835312;29;113227;-71
2023/02/12 03:51:40;;;;;;;21.10;13.50;;;;;;;11.46;56.37;103737.41;4833512;29;124866;-71
2023/02/12 03:54:11;;;;;;;21.08;13.80;;;;;;;11.46;56.16;103726.78;4816754;29;124038;-71
2023/02/12 03:56:48;;;;;;;20.13;13.25;;;;;;;11.45;56.17;103735.66;4835553;29;114111;-71
2023/02/12 03:59:15;;;;;;;22.50;13.00;;;;;;;11.45;56.28;103725.03;4834562;29;113268;-71
2023/02/12 04:01:44;;;;;;;22.13;13.40;;;;;;;11.44;56.08;103725.91;4832520;29;124492;-70
2023/02/12 04:04:12;;;;;;;20.95;13.50;;;;;;;11.44;56.41;103733.88;4837775;29;123768;-70
2023/02/12 04:06:40;;;;;;;21.33;13.65;;;;;;;11.45;56.34;103740.97;4836360;29;116929;-70
2023/02/12 04:09:11;;;;;;;20.35;13.32;;;;;;;11.45;56.09;103745.38;4836228;29;115537;-70
2023/02/12 04:12:06;;;;;;;21.70;13.68;;;;;;;11.46;56.22;103753.31;4832706;29;123078;-70
2023/02/12 04:14:45;;;;;;;31.83;13.50;;;;;;;11.45;56.15;103740.97;4835902;29;123951;-70
2023/02/12 04:17:25;;;;;;;22.83;14.02;;;;;;;11.44;56.08;103739.19;4830444;29;115018;-70
2023/02/12 04:20:44;;;;;;;20.88;13.20;;;;;;;11.45;56.14;103746.28;4836405;29;114182;-70
2023/02/12 04:23:28;;;;;;;22.05;13.88;;;;;;;11.44;56.15;103754.22;4825079;29;123640;-70
2023/02/12 04:26:09;;;;;;;21.88;13.55;;;;;;;11.43;56.07;103757.75;4828870;29;123961;-70
2023/02/12 04:29:03;;;;;;;21.75;13.88;;;;;;;11.44;56.36;103760.41;4832500;29;113513;-70
2023/02/12 04:31:54;;;;;;;23.25;14.57;;;;;;;11.45;56.23;103766.59;4825854;29;114326;-70
2023/02/12 04:34:43;;;;;;;24.63;13.65;;;;;;;11.45;56.25;103770.16;4831014;29;124400;-70
2023/02/12 04:37:34;;;;;;;23.67;14.07;;;;;;;11.44;56.10;103773.69;4836341;29;124869;-70
2023/02/12 04:40:07;;;;;;;19.23;13.48;;;;;;;11.44;55.99;103776.34;4835319;29;114838;-70
2023/02/12 04:42:43;;;;;;;23.88;14.32;;;;;;;11.43;55.96;103774.59;4835505;29;114980;-71
2023/02/12 04:45:12;;;;;;;21.33;14.45;;;;;;;11.45;55.88;103783.44;4834493;29;125196;-71
2023/02/12 04:47:40;;;;;;;24.70;15.20;;;;;;;11.46;56.23;103779.88;4827817;29;125863;-70
2023/02/12 04:50:07;;;;;;;22.65;14.90;;;;;;;11.47;56.03;103781.66;4831436;29;114422;-71
2023/02/12 04:52:35;;;;;;;18.67;13.35;;;;;;;11.47;55.93;103780.75;4840264;29;113893;-71
2023/02/12 04:55:02;;;;;;;22.02;14.35;;;;;;;11.46;55.81;103779.88;4845779;28;123979;-71
2023/02/12 04:57:30;;;;;;;21.55;14.63;;;;;;;11.44;55.76;103776.34;4835818;29;123749;-71
2023/02/12 04:59:57;;;;;;;21.60;13.95;;;;;;;11.44;55.91;103781.66;4834164;29;115259;-74
2023/02/12 05:02:25;;;;;;;23.23;14.45;;;;;;;11.44;55.83;103775.47;4830849;29;114365;-71
2023/02/12 05:04:52;;;;;;;21.10;13.98;;;;;;;11.44;56.02;103781.66;4820571;29;123306;-70
2023/02/12 05:07:19;;;;;;;24.50;14.73;;;;;;;11.44;55.87;103776.34;4817216;29;123496;-70
2023/02/12 05:09:47;;;;;;;23.52;14.25;;;;;;;11.43;55.83;103779.91;4836278;29;114339;-71
2023/02/12 05:12:14;;;;;;;22.83;14.18;;;;;;;11.42;55.97;103772.81;4834100;29;113929;-70
2023/02/12 05:14:42;;;;;;;22.75;15.02;;;;;;;11.42;55.93;103780.75;4833332;29;123941;-71
2023/02/12 05:17:09;;;;;;;23.70;14.30;;;;;;;11.42;55.61;103782.53;4833600;29;123873;-70
2023/02/12 05:19:36;;;;;;;21.58;13.82;;;;;;;11.41;55.94;103781.63;4829582;29;114529;-70
2023/02/12 05:22:03;;;;;;;23.35;14.98;;;;;;;11.41;55.79;103781.63;4831185;29;114438;-70
2023/02/12 05:24:32;;;;;;;26.02;15.15;;;;;;;11.40;55.88;103779.88;4830816;29;124394;-71
2023/02/12 05:26:59;;;;;;;22.05;15.07;;;;;;;11.42;56.08;103783.41;4809897;29;122930;-71
2023/02/12 05:29:26;;;;;;;22.65;14.80;;;;;;;11.41;55.73;103786.94;4833048;29;114464;-73
2023/02/12 05:31:53;;;;;;;21.40;14.35;;;;;;;11.41;55.81;103786.94;4832305;29;112147;-71
2023/02/12 05:34:21;;;;;;;23.65;14.55;;;;;;;11.40;55.92;103787.84;4832999;29;123460;-70
2023/02/12 05:36:48;;;;;;;24.50;15.05;;;;;;;11.40;56.09;103790.50;4828401;29;124228;-70
2023/02/12 05:39:15;;;;;;;25.13;14.98;;;;;;;11.40;55.87;103785.19;4821510;29;113101;-70
2023/02/12 05:41:43;;;;;;;21.73;14.57;;;;;;;11.39;55.92;103788.72;4831138;29;113111;-71
2023/02/12 05:44:11;;;;;;;23.23;14.52;;;;;;;11.39;55.82;103794.03;4836718;29;123873;-71
2023/02/12 05:46:38;;;;;;;24.10;15.20;;;;;;;11.38;55.88;103791.41;4831094;29;123637;-70
2023/02/12 05:49:07;;;;;;;24.33;14.80;;;;;;;11.38;55.97;103792.28;4833105;29;115078;-70
2023/02/12 05:51:34;;;;;;;23.73;15.07;;;;;;;11.37;55.72;103790.50;4831570;29;115362;-71
2023/02/12 05:54:04;;;;;;;23.40;14.98;;;;;;;11.37;55.87;103790.50;4827892;29;124334;-73
2023/02/12 05:56:37;;;;;;;24.50;14.77;;;;;;;11.36;55.72;103794.06;4836237;29;124375;-73
2023/02/12 05:59:11;;;;;;;22.27;14.93;;;;;;;11.33;56.00;103788.72;4831944;29;114483;-71
2023/02/12 06:01:40;;;;;;;24.85;14.63;;;;;;;11.32;55.79;103792.28;4832575;29;114625;-70
2023/02/12 06:04:13;;;;;;;23.50;14.95;;;;;;;11.30;56.01;103794.94;4832167;29;122905;-71
2023/02/12 06:06:41;;;;;;;23.90;15.35;;;;;;;11.31;55.79;103801.13;4835180;29;124435;-71
2023/02/12 06:09:10;;;;;;;26.52;14.82;;;;;;;11.29;55.83;103792.28;4832153;29;114645;-71
2023/02/12 06:11:38;;;;;;;22.70;14.80;;;;;;;11.29;55.82;103797.59;4832736;29;114273;-70
2023/02/12 06:14:08;;;;;;;23.05;15.00;;;;;;;11.28;55.90;103801.09;4830062;29;124350;-70
2023/02/12 06:16:35;;;;;;;25.05;15.27;;;;;;;11.27;55.82;103804.66;4813079;29;123938;-70
2023/02/12 06:19:04;;;;;;;26.23;15.35;;;;;;;11.24;55.92;103799.34;4833132;29;114636;-70
2023/02/12 06:21:32;;;;;;;23.10;15.35;;;;;;;11.21;56.07;103799.38;4833513;29;114314;-70
2023/02/12 06:24:00;;;;;;;27.08;16.60;;;;;;;11.21;56.05;103794.94;4835709;29;123868;-74
2023/02/12 06:26:27;;;;;;;24.80;16.50;;;;;;;11.21;56.14;103799.38;4833175;29;124533;-70
2023/02/12 06:28:54;;;;;;;25.45;14.77;;;;;;;11.22;55.98;103803.78;4835094;29;114044;-70
2023/02/12 06:31:27;;;;;;;25.08;15.68;;;;;;;11.20;56.03;103803.75;4832497;29;113018;-70
2023/02/12 06:33:57;;;;;;;23.05;14.80;;;;;;;11.20;56.30;103809.06;4829895;29;124129;-70
2023/02/12 06:36:24;;;;;;;22.83;14.90;;;;;;;11.21;56.13;103804.69;4830482;29;123175;-70
2023/02/12 06:38:52;;;;;;;25.25;14.55;;;;;;;11.22;56.25;103806.44;4843040;29;115233;-71
2023/02/12 06:41:20;;;;;;;23.55;14.38;;;;;;;11.24;56.23;103804.66;4831182;29;115060;-70
2023/02/12 06:43:48;;;;;;;23.70;14.60;;;;;;;11.23;56.17;103798.47;4819837;29;123644;-71
2023/02/12 06:46:16;;;;;;;24.52;14.75;;;;;;;11.25;56.30;103806.44;4838886;29;123338;-70
2023/02/12 06:48:44;;;;;;;23.02;14.55;;;;;;;11.23;56.09;103802.91;4831470;29;114539;-70
2023/02/12 06:51:14;;;;;;;25.25;15.43;;;;;;;11.24;56.20;103807.31;4852678;28;113249;-71
2023/02/12 06:53:42;;;;;;;25.95;15.07;;;;;;;11.24;56.31;103815.25;4834408;29;124382;-72
2023/02/12 06:56:11;;;;;;;26.42;15.20;;;;;;;11.23;56.08;103813.50;4832568;29;124109;-70
2023/02/12 06:58:41;;;;;;;23.10;14.27;;;;;;;11.22;56.16;103817.91;4816193;29;114292;-70
2023/02/12 07:01:17;;;;;;;25.95;14.82;;;;;;;11.23;56.21;103818.81;4847522;28;113598;-70
2023/02/12 07:03:49;;;;;;;25.58;13.90;;;;;;;11.22;56.22;103817.03;4827687;29;123277;-73
2023/02/12 07:06:19;;;;;;;24.00;14.45;;;;;;;11.22;56.16;103827.66;4834274;29;123938;-74
2023/02/12 07:08:46;;;;;;;23.75;13.57;;;;;;;11.22;56.25;103822.34;4828840;29;114362;-74
2023/02/12 07:11:15;;;;;;;21.67;13.77;;;;;;;11.22;56.16;103822.34;4835204;29;113989;-73
2023/02/12 07:13:44;;;;;;;22.88;14.20;;;;;;;11.21;56.34;103825.91;4831143;29;122853;-73
2023/02/12 07:16:14;;;;;;;21.77;13.85;;;;;;;11.21;56.21;103820.59;4828840;29;124379;-72
2023/02/12 07:18:43;;;;;;;24.77;14.35;;;;;;;11.20;56.08;103824.13;4837536;29;114391;-73
2023/02/12 07:21:12;;;;;;;27.45;14.57;;;;;;;11.19;56.05;103827.63;4836720;29;114527;-73
2023/02/12 07:23:39;;;;;;;23.55;14.05;;;;;;;11.18;56.40;103831.19;4831714;29;123834;-74
2023/02/12 07:26:11;;;;;;;22.50;14.23;;;;;;;11.17;56.24;103834.72;4834630;29;123933;-73
2023/02/12 07:28:40;;;;;;;26.02;14.73;;;;;;;11.17;56.14;103835.63;4837113;29;115896;-70
2023/02/12 07:31:19;;;;;;;25.42;14.40;;;;;;;11.15;56.53;103825.88;4836733;29;114999;-70
2023/02/12 07:33:47;;;;;;;26.52;14.65;;;;;;;11.15;56.37;103832.09;4833569;29;124854;-70
2023/02/12 07:36:18;;;;;;;24.73;14.45;;;;;;;11.15;56.46;103841.78;4832783;29;124355;-70
2023/02/12 07:38:45;;;;;;;24.67;14.00;;;;;;;11.14;56.43;103840.03;4816778;29;114626;-71
2023/02/12 07:41:19;;;;;;;27.77;13.30;;;;;;;11.15;56.51;103841.78;4833475;29;113965;-70
2023/02/12 07:43:51;;;;;;;26.95;15.00;;;;;;;11.13;56.52;103843.56;4835553;29;124495;-70
2023/02/12 07:46:30;;;;;;;26.00;14.88;;;;;;;11.10;56.59;103847.97;4832907;29;123824;-70
2023/02/12 07:48:59;;;;;;;23.65;14.43;;;;;;;11.12;56.54;103849.75;4836708;29;114125;-70
2023/02/12 07:51:27;;;;;;;27.02;14.98;;;;;;;11.13;56.88;103848.88;4829228;29;114043;-70
2023/02/12 07:53:55;;;;;;;21.63;12.45;;;;;;;11.14;56.73;103843.56;4837506;29;124126;-70
2023/02/12 07:56:24;;;;;;;23.83;12.57;;;;;;;11.15;56.83;103852.41;4832633;29;123976;-70
2023/02/12 07:58:52;;;;;;;25.45;12.55;;;;;;;11.15;56.69;103847.09;4818954;29;113432;-71
2023/02/12 08:01:24;;;;;;;24.17;13.30;;;;;;;11.15;56.85;103849.75;4833041;29;114364;-70
2023/02/12 08:03:51;;;;;;;23.60;12.40;;;;;;;11.17;56.63;103847.97;4831409;29;124182;-71
2023/02/12 08:06:20;;;;;;;26.73;13.23;;;;;;;11.17;56.90;103853.28;4829646;29;123971;-71
2023/02/12 08:08:50;;;;;;;23.38;13.10;;;;;;;11.19;56.94;103854.16;4851504;28;113507;-71
2023/02/12 08:11:18;;;;;;;24.48;12.68;;;;;;;11.21;56.75;103847.13;4836475;29;113357;-71
2023/02/12 08:13:46;;;;;;;25.00;13.38;;;;;;;11.20;56.72;103855.94;4833278;29;124013;-71
2023/02/12 08:16:16;;;;;;;22.08;11.68;;;;;;;11.21;56.77;103857.72;4834558;29;124073;-71
2023/02/12 08:18:45;;;;;;;23.98;12.70;;;;;;;11.21;56.66;103863.03;4828287;29;115138;-71
2023/02/12 08:21:24;;;;;;;23.48;11.73;;;;;;;11.22;56.62;103864.78;4827607;29;116374;-71
2023/02/12 08:23:56;;;;;;;22.23;12.15;;;;;;;11.23;56.79;103863.91;4836177;29;124781;-71
2023/02/12 08:26:29;;;;;;;26.73;12.75;;;;;;;11.25;56.83;103870.13;4812301;29;123278;-71
2023/02/12 08:29:03;;;;;;;23.77;12.48;;;;;;;11.27;56.80;103868.34;4830759;29;114346;-71
2023/02/12 08:31:33;;;;;;;24.20;12.50;;;;;;;11.31;56.89;103875.41;4820005;29;112984;-71
2023/02/12 08:34:00;;;;;;;22.65;12.38;;;;;;;11.34;56.85;103875.44;4833149;29;124711;-74
2023/02/12 08:36:30;;;;;;;23.63;12.52;;;;;;;11.38;56.74;103877.19;4835538;29;124300;-73
2023/02/12 08:38:58;;;;;;;21.50;11.77;;;;;;;11.41;56.49;103882.47;4829071;29;112836;-72
2023/02/12 08:41:28;;;;;;;25.67;13.00;;;;;;;11.43;56.76;103880.75;4828915;29;113936;-73
2023/02/12 08:43:58;;;;;;;25.23;12.65;;;;;;;11.46;56.78;103875.41;4827525;29;124601;-73
2023/02/12 08:46:27;;;;;;;24.70;13.00;;;;;;;11.48;56.81;103878.94;4831290;29;124173;-73
2023/02/12 08:48:58;;;;;;;25.63;13.65;;;;;;;11.51;56.72;103883.41;4845362;28;113443;-71
2023/02/12 08:51:29;;;;;;;22.67;13.05;;;;;;;11.53;56.72;103886.03;4831482;29;113983;-70
2023/02/12 08:54:00;;;;;;;23.35;12.55;;;;;;;11.54;56.61;103883.38;4817241;29;124047;-71
2023/02/12 08:56:29;;;;;;;24.83;12.35;;;;;;;11.58;56.63;103889.56;4813382;29;124293;-70
2023/02/12 08:58:58;;;;;;;25.13;12.88;;;;;;;11.62;56.69;103886.03;4824084;29;114285;-70
2023/02/12 09:01:28;;;;;;;28.58;12.90;;;;;;;11.65;56.59;103886.03;4824311;29;114147;-70
2023/02/12 09:03:56;;;;;;;23.00;12.30;;;;;;;11.68;56.57;103886.03;4826653;29;124469;-70
2023/02/12 09:06:25;;;;;;;22.83;12.40;;;;;;;11.70;56.76;103884.28;4836658;29;123870;-74
2023/02/12 09:08:54;;;;;;;25.20;14.50;;;;;;;11.74;56.68;103901.09;4825824;29;115034;-74
2023/02/12 09:11:29;;;;;;;26.98;14.73;;;;;;;11.77;56.62;103890.44;4830587;29;115418;-74
2023/02/12 09:14:02;;;;;;;26.25;14.45;;;;;;;11.78;56.67;103898.41;4829389;29;123657;-74
2023/02/12 09:16:33;;;;;;;27.15;15.43;;;;;;;11.80;56.74;103906.38;4827479;29;124340;-75
2023/02/12 09:19:02;;;;;;;27.20;15.30;;;;;;;11.83;56.92;103901.09;4819927;29;114218;-74
2023/02/12 09:21:29;;;;;;;28.33;15.00;;;;;;;11.86;56.53;103901.06;4828416;29;113989;-74
2023/02/12 09:23:57;;;;;;;29.70;15.40;;;;;;;11.90;56.77;103907.28;4834885;29;123963;-75
2023/02/12 09:26:25;;;;;;;29.20;15.20;;;;;;;11.92;56.75;103905.50;4822827;29;123853;-74
2023/02/12 09:28:53;;;;;;;28.25;14.57;;;;;;;11.94;56.64;103909.03;4823942;29;114731;-74
2023/02/12 09:31:29;;;;;;;26.17;15.05;;;;;;;11.95;56.71;103914.38;4828341;29;113597;-74
2023/02/12 09:34:00;;;;;;;25.95;15.18;;;;;;;11.98;56.30;103917.03;4811382;29;123550;-74
2023/02/12 09:36:30;;;;;;;25.63;14.65;;;;;;;12.01;56.60;103910.81;4844854;28;122108;-74
2023/02/12 09:38:58;;;;;;;27.85;14.80;;;;;;;12.05;56.55;103907.25;4830717;29;114589;-74
2023/02/12 09:41:54;;;;;;;25.50;14.85;;;;;;;12.06;56.56;103903.72;4827879;29;113871;-75
2023/02/12 09:45:05;;;;;;;23.88;14.20;;;;;;;12.09;56.57;103903.69;4823778;29;124885;-75
2023/02/12 09:48:15;;;;;;;26.38;14.57;;;;;;;12.11;56.56;103903.69;4802902;29;122888;-80
2023/02/12 09:51:06;;;;;;;26.98;15.25;;;;;;;12.13;56.57;103905.50;4827621;29;114026;-75
2023/02/12 09:53:38;;;;;;;28.75;14.77;;;;;;;12.16;56.59;103904.59;4826367;29;113385;-75
2023/02/12 09:56:12;;;;;;;27.98;15.13;;;;;;;12.16;56.31;103910.78;4830146;29;125024;-75
2023/02/12 09:58:53;;;;;;;28.08;15.43;;;;;;;12.16;56.65;103900.16;4841602;28;123001;-75
2023/02/12 10:01:22;;;;;;;28.30;14.65;;;;;;;12.19;56.68;103908.13;4810741;29;115271;-75
2023/02/12 10:03:51;;;;;;;29.60;15.05;;;;;;;12.23;56.60;103907.22;4821872;29;114771;-75
2023/02/12 10:06:24;;;;;;;27.40;15.38;;;;;;;12.27;56.44;103914.28;4802584;29;124030;-75
2023/02/12 10:08:57;;;;;;;30.30;15.05;;;;;;;12.30;56.41;103909.84;4809447;29;122927;-75
2023/02/12 10:11:35;;;;;;;26.77;15.00;;;;;;;12.32;56.38;103913.38;4823798;29;113890;-75
2023/02/12 10:14:21;;;;;;;27.90;15.75;;;;;;;12.33;56.40;103907.19;4825397;29;114900;-75
2023/02/12 10:17:10;;;;;;;29.00;15.13;;;;;;;12.35;56.39;103910.72;4830570;29;124474;-77
2023/02/12 10:20:18;;;;;;;31.70;14.82;;;;;;;12.34;56.24;103908.94;4833081;29;124096;-75
2023/02/12 10:22:48;;;;;;;26.65;15.35;;;;;;;12.38;56.37;103910.72;4816048;29;114463;-75
2023/02/12 10:25:23;;;;;;;27.27;15.10;;;;;;;12.42;56.40;103907.16;4824680;29;114298;-77
2023/02/12 10:27:54;;;;;;;27.02;14.98;;;;;;;12.44;56.31;103898.28;4827792;29;124149;-79
2023/02/12 10:30:26;;;;;;;30.63;15.70;;;;;;;12.48;56.46;103896.50;4812952;29;124346;-79
2023/02/12 10:33:05;;;;;;;25.73;14.73;;;;;;;12.51;56.18;103891.19;4825585;29;114122;-76
2023/02/12 10:35:33;;;;;;;30.85;15.93;;;;;;;12.58;56.23;103898.25;4840191;29;113888;-76
2023/02/12 10:38:06;;;;;;;29.45;15.70;;;;;;;12.62;56.33;103889.38;4826406;29;124067;-76
2023/02/12 10:40:37;;;;;;;27.17;15.05;;;;;;;12.69;56.25;103894.66;4826518;29;124650;-77
2023/02/12 10:43:04;;;;;;;29.30;15.85;;;;;;;12.74;56.27;103890.19;4812265;29;114930;-76
2023/02/12 10:45:34;;;;;;;34.20;16.30;;;;;;;12.79;56.33;103893.69;4840264;29;112772;-76
2023/02/12 10:48:10;;;;;;;29.10;15.20;;;;;;;12.83;56.12;103892.81;4821324;29;124473;-75
2023/02/12 10:51:02;;;;;;;29.73;15.40;;;;;;;12.87;56.11;103883.91;4821553;29;124300;-75
2023/02/12 10:53:40;;;;;;;30.70;15.88;;;;;;;12.90;56.12;103883.00;4813551;29;114360;-75
2023/02/12 10:56:23;;;;;;;28.15;15.52;;;;;;;12.94;55.87;103890.97;4834828;29;114203;-75
2023/02/12 10:58:54;;;;;;;32.22;16.02;;;;;;;12.98;55.85;103887.41;4824792;29;124271;-75
2023/02/12 11:01:28;;;;;;;32.88;16.55;;;;;;;13.03;55.68;103885.59;4816838;29;124354;-75
2023/02/12 11:03:57;;;;;;;31.92;16.70;;;;;;;13.08;55.65;103888.22;4816786;29;114439;-75
2023/02/12 11:06:32;;;;;;;29.73;15.57;;;;;;;13.13;55.59;103885.50;4816162;29;113954;-75
2023/02/12 11:08:59;;;;;;;31.02;15.48;;;;;;;13.18;55.67;103889.91;4820205;29;124507;-75
2023/02/12 11:11:30;;;;;;;30.70;16.23;;;;;;;13.24;55.37;103900.53;4817450;29;123033;-76
2023/02/12 11:14:18;;;;;;;32.15;16.10;;;;;;;13.29;55.26;103889.84;4823409;29;114826;-75
2023/02/12 11:16:52;;;;;;;32.65;16.63;;;;;;;13.33;55.13;103888.94;4834452;29;114358;-75
2023/02/12 11:19:23;;;;;;;30.20;16.42;;;;;;;13.37;54.76;103885.38;4819035;29;123892;-75
2023/02/12 11:21:51;;;;;;;31.73;15.73;;;;;;;13.39;54.75;103882.69;4823665;29;124260;-75
2023/02/12 11:24:24;;;;;;;30.23;16.00;;;;;;;13.40;54.83;103888.00;4819592;29;115307;-75
2023/02/12 11:27:09;;;;;;;28.35;15.20;;;;;;;13.44;54.59;103887.06;4809181;29;113675;-72
2023/02/12 11:29:37;;;;;;;30.55;15.63;;;;;;;13.49;54.80;103884.41;4826133;29;122735;-72